Terminal Aerodrome Forecast
Issued by NWS Green Bay, WI

Home | Current Version | Previous Version | Graphics & Text | Print | Product List | Glossary On
Versions: 1 2 3 4 5 6 7 8 9 10 11 12 13 14 15 16 17 18 19 20 21 22 23 24
000
FTUS43 KGRB 282330
TAFGRB
TAF
KGRB 282330Z 2900/2924 19004KT P6SM SKC
     FM290600 17003KT 6SM BR FEW250
     FM290900 VRB03KT 3SM BR SCT250
      TEMPO 2909/2913 1SM BR BKN002
     FM291400 18005KT P6SM BKN025
     FM291700 17008KT P6SM SCT035=

USA.gov is the U.S. government's official web portal to all federal, state and local government web resources and services.